Linwood, Michigan
Current Conditions -  °F | °C
As of 6:53 AM on Friday 28 Nov 2014 (Local Time) from KMBS Reporting Station
Clear Clear  
Wind Chill: 19°   Ceiling: Unl
Heat Index: 19°   Visibility: 10mi
Dew Point: 12°   Wind: 3mph
Humidity: 74%   Direction: 240°WSW
Pressure: 30.32"   Gusts: NA
Location:  43.74°N, 83.96°W
Report Text: KMBS 281153Z 24003KT 10SM CLR M07/M11 A3032 RMK AO2 SLP280 T10721111 11067 21089 56006
Loading
Personal Weather Stations






























Interactive Weather Map New forecast layout! Learn more

10-Day Weather Forecast

Advertisements
Track Severe Weather on mobile